Portada
METAR-TAF:

METAR-TAF

Aeroports :

Lihue, Hawaii, Estats Units d'Amèrica

latitud: 21-59-02N, longitud: 159-20-28W, altitud: 45 m

Observació

L'informe es va fer fa 56 minuts, a les 04:53 UTC
Vent 14 kt del Est/Nord-Est
Temperatura 26°C
Humitat 79%
Pressió 1018 hPa
Visibilitat: 16.1 km
Núvols disperses a una alçada de 2300 ft

METAR: PHLI 220453Z 06014KT 10SM SCT023 26/22 A3005 RMK AO2 SLP173 T02610217

Hora: 19:49 (05:49 UTC)

Pronòstic

L'informe es va fer fa 29 minuts, a les 05:20 UTC
Pronòstic vàlid del 22 a les 06 UTC al 23 a les 06 UTC
Vent 14 kt del Est/Nord-Est
Visibilitat: 10 km
Núvols disperses a una alçada de 2500 ft
Núvols disperses a una alçada de 4500 ft

TAF: PHLI 220520Z 2206/2306 06014KT P6SM SCT025 SCT045

Observacions i pronòstics meteorològics de més de 4000 aeroports (METAR i TAF).

Les estacions disponibles són els punts grocs i vermells al mapa.

Posi el ratolí al punt desitjat per veure el nom de l'estació.

Feu clic per veure les observacions i els pronòstics meteorològics.

Per canviar el mapa: feu clic els botons verds amb una creu de color negre per apropar; al botó verd amb un guió per allunyar la imatge; o en les fletxes verdes per a mapes adjacents.


METAR-TAF: